createdAt,value
2022-10-28T00:01:07.986Z,10.17
2022-10-28T00:03:39.545Z,10.43
2022-10-28T00:06:09.654Z,10.47
2022-10-28T00:08:37.657Z,10.80
2022-10-28T00:11:07.438Z,10.90
2022-10-28T00:13:37.968Z,9.87
2022-10-28T00:16:09.274Z,9.60
2022-10-28T00:18:37.298Z,9.47
2022-10-28T00:21:07.167Z,11.07
2022-10-28T00:23:35.538Z,10.90
2022-10-28T00:26:08.117Z,10.93
2022-10-28T00:28:35.923Z,11.27
2022-10-28T00:31:10.288Z,11.20
2022-10-28T00:33:38.246Z,11.57
2022-10-28T00:36:11.683Z,11.77
2022-10-28T00:38:39.950Z,10.97
2022-10-28T00:41:08.541Z,11.00
2022-10-28T00:43:38.354Z,10.43
2022-10-28T00:46:13.910Z,10.20
2022-10-28T00:48:44.682Z,10.90
2022-10-28T00:51:12.695Z,10.37
2022-10-28T00:53:42.210Z,10.87
2022-10-28T00:56:11.083Z,10.63
2022-10-28T00:58:39.047Z,10.07
2022-10-28T01:01:06.882Z,9.73
2022-10-28T01:03:37.713Z,10.23
2022-10-28T01:06:06.536Z,9.30
2022-10-28T01:08:34.425Z,10.37
2022-10-28T01:11:27.643Z,10.23
2022-10-28T01:14:10.940Z,9.23
2022-10-28T01:16:47.874Z,9.17
2022-10-28T01:19:54.331Z,10.10
2022-10-28T01:22:26.803Z,10.03
2022-10-28T01:25:15.557Z,10.23
2022-10-28T01:28:29.497Z,10.53
2022-10-28T01:31:16.742Z,9.63
2022-10-28T01:33:53.464Z,9.70
2022-10-28T01:36:33.515Z,9.53
2022-10-28T01:39:10.569Z,9.67
2022-10-28T01:41:48.545Z,9.67
2022-10-28T01:44:25.928Z,11.07
2022-10-28T01:47:01.158Z,10.27
2022-10-28T01:49:34.813Z,10.60
2022-10-28T01:52:06.092Z,9.53
2022-10-28T01:54:35.715Z,10.17
2022-10-28T01:57:06.032Z,9.10
2022-10-28T01:59:35.592Z,9.57
2022-10-28T02:02:04.858Z,9.73
2022-10-28T02:04:32.658Z,9.60
2022-10-28T02:07:01.858Z,10.10
2022-10-28T02:09:42.216Z,10.33
2022-10-28T02:12:21.801Z,10.10
2022-10-28T02:15:14.970Z,9.57
2022-10-28T02:17:57.834Z,8.97
2022-10-28T02:20:35.693Z,8.80
2022-10-28T02:23:16.465Z,9.03
2022-10-28T02:25:52.419Z,9.93
2022-10-28T02:28:25.840Z,9.87
2022-10-28T02:31:00.209Z,9.93
2022-10-28T02:33:33.580Z,9.70
2022-10-28T02:36:05.877Z,9.43
2022-10-28T02:38:37.345Z,9.33
2022-10-28T02:41:10.431Z,9.70
2022-10-28T02:43:39.781Z,9.70
2022-10-28T02:46:09.291Z,9.73
2022-10-28T02:48:43.941Z,9.40
2022-10-28T02:51:15.093Z,9.43
2022-10-28T02:53:53.931Z,9.63
2022-10-28T02:56:22.943Z,9.47
2022-10-28T02:58:51.014Z,9.63
2022-10-28T03:01:18.885Z,9.93
2022-10-28T03:03:48.070Z,9.53
2022-10-28T03:06:15.924Z,8.97
2022-10-28T03:08:43.730Z,10.23
2022-10-28T03:11:11.594Z,9.80
2022-10-28T03:13:39.385Z,10.40
2022-10-28T03:16:07.339Z,9.90
2022-10-28T03:18:35.090Z,9.63
2022-10-28T03:21:04.347Z,9.23
2022-10-28T03:23:32.203Z,9.30
2022-10-28T03:26:00.080Z,9.73
2022-10-28T03:28:27.898Z,9.30
2022-10-28T03:30:55.771Z,9.63
2022-10-28T03:33:23.571Z,9.83
2022-10-28T03:35:51.420Z,10.13
2022-10-28T03:38:20.538Z,9.83
2022-10-28T03:40:48.979Z,9.30
2022-10-28T03:43:16.971Z,10.23
2022-10-28T03:45:45.454Z,11.40
2022-10-28T03:48:13.289Z,10.33
2022-10-28T03:50:41.187Z,10.00
2022-10-28T03:53:09.175Z,9.27
2022-10-28T03:55:38.361Z,9.87
2022-10-28T03:58:06.115Z,9.73
2022-10-28T04:00:33.971Z,9.93
2022-10-28T04:03:01.781Z,9.50
2022-10-28T04:05:29.628Z,10.27
2022-10-28T04:07:57.346Z,10.30
2022-10-28T04:10:25.189Z,10.40
2022-10-28T04:12:54.607Z,10.07
2022-10-28T04:15:22.517Z,10.33
2022-10-28T04:17:50.301Z,9.00
2022-10-28T04:20:18.129Z,9.10
2022-10-28T04:22:45.861Z,9.90
2022-10-28T04:27:46.488Z,8.67
2022-10-28T04:30:16.330Z,8.83
2022-10-28T04:32:45.191Z,8.10
2022-10-28T04:35:14.160Z,9.20
2022-10-28T04:37:42.485Z,8.70
2022-10-28T04:40:10.916Z,8.60
2022-10-28T04:42:38.799Z,8.83
2022-10-28T04:45:07.847Z,9.20
2022-10-28T04:47:36.977Z,9.00
2022-10-28T04:50:05.625Z,9.43
2022-10-28T04:52:33.408Z,10.20
2022-10-28T04:55:01.264Z,10.10
2022-10-28T04:57:29.172Z,9.87
2022-10-28T04:59:56.936Z,8.53
2022-10-28T05:02:24.922Z,9.37
2022-10-28T05:04:54.166Z,8.80
2022-10-28T05:07:23.571Z,9.43
2022-10-28T05:09:51.464Z,8.90
2022-10-28T05:12:19.303Z,10.97
2022-10-28T05:14:48.991Z,10.53
2022-10-28T05:17:18.985Z,11.00
2022-10-28T05:19:46.717Z,10.20
2022-10-28T05:22:15.817Z,9.17
2022-10-28T05:24:43.623Z,10.43
2022-10-28T05:27:12.506Z,9.90
2022-10-28T05:29:40.274Z,9.40
2022-10-28T05:32:08.084Z,10.63
2022-10-28T05:34:36.207Z,10.07
2022-10-28T05:37:04.069Z,11.13
2022-10-28T05:39:33.212Z,10.47
2022-10-28T05:42:01.050Z,10.83
2022-10-28T05:44:28.818Z,10.67
2022-10-28T05:46:56.558Z,10.17
2022-10-28T05:49:24.389Z,10.30
2022-10-28T05:51:52.155Z,10.43
2022-10-28T05:54:20.217Z,10.40
2022-10-28T05:56:49.584Z,11.23
2022-10-28T05:59:17.425Z,10.23
2022-10-28T06:01:45.267Z,10.30
2022-10-28T06:04:13.085Z,10.60
2022-10-28T06:06:40.932Z,10.53
2022-10-28T06:09:08.750Z,10.50
2022-10-28T06:11:35.305Z,11.17
2022-10-28T06:14:04.433Z,10.17
2022-10-28T06:16:32.367Z,10.63
2022-10-28T06:19:00.400Z,10.20
2022-10-28T06:21:28.137Z,10.60
2022-10-28T06:23:55.909Z,10.23
2022-10-28T06:26:23.743Z,9.77
2022-10-28T06:28:51.511Z,9.47
2022-10-28T06:31:20.610Z,9.60
2022-10-28T06:33:48.409Z,9.07
2022-10-28T06:36:16.453Z,9.20
2022-10-28T06:38:44.227Z,9.20
2022-10-28T06:41:12.085Z,9.57
2022-10-28T06:43:40.011Z,11.23
2022-10-28T06:46:07.776Z,9.90
2022-10-28T06:48:38.430Z,14.07
2022-10-28T06:51:06.669Z,9.47
2022-10-28T06:53:34.386Z,8.90
2022-10-28T06:56:02.310Z,8.40
2022-10-28T06:58:30.088Z,7.90
2022-10-28T07:00:57.987Z,8.00
2022-10-28T07:03:25.781Z,7.73
2022-10-28T07:05:56.131Z,8.23
2022-10-28T07:08:24.013Z,7.50
2022-10-28T07:10:56.341Z,7.83
2022-10-28T07:13:24.490Z,10.27
2022-10-28T07:15:59.696Z,6.97
2022-10-28T07:18:29.839Z,7.47
2022-10-28T07:21:01.086Z,7.57
2022-10-28T07:23:31.452Z,7.60
2022-10-28T07:25:59.525Z,8.40
2022-10-28T07:28:28.161Z,8.10
2022-10-28T07:30:56.420Z,7.80
2022-10-28T07:33:24.354Z,7.80
2022-10-28T07:35:52.150Z,7.63
2022-10-28T07:38:21.317Z,6.83
2022-10-28T07:40:49.232Z,7.33
2022-10-28T07:43:17.092Z,6.97
2022-10-28T07:45:45.002Z,11.43
2022-10-28T07:48:12.865Z,7.30
2022-10-28T07:50:41.355Z,7.33
2022-10-28T07:53:09.289Z,7.43
2022-10-28T07:55:38.733Z,7.30
2022-10-28T07:58:06.719Z,7.00
2022-10-28T08:00:34.920Z,7.47
2022-10-28T08:03:03.720Z,6.00
2022-10-28T08:05:31.508Z,7.00
2022-10-28T08:07:59.257Z,6.77
2022-10-28T08:10:27.748Z,6.70
2022-10-28T08:12:58.873Z,6.70
2022-10-28T08:15:27.288Z,7.30
2022-10-28T08:17:55.678Z,6.93
2022-10-28T08:20:24.520Z,6.97
2022-10-28T08:22:52.698Z,6.43
2022-10-28T08:25:20.869Z,7.00
2022-10-28T08:27:48.591Z,6.23
2022-10-28T08:30:18.493Z,6.50
2022-10-28T08:32:46.325Z,5.43
2022-10-28T08:35:14.430Z,6.33
2022-10-28T08:37:46.018Z,6.43
2022-10-28T08:40:14.687Z,5.17
2022-10-28T08:42:47.407Z,5.70
2022-10-28T08:45:41.636Z,5.93
2022-10-28T08:48:20.083Z,5.90
2022-10-28T08:50:53.201Z,5.07
2022-10-28T08:53:25.734Z,5.47
2022-10-28T08:55:59.553Z,5.60
2022-10-28T08:58:33.205Z,5.47
2022-10-28T09:01:02.768Z,5.53
2022-10-28T09:03:36.768Z,5.47
2022-10-28T09:06:08.937Z,4.97
2022-10-28T09:08:39.789Z,5.27
2022-10-28T09:11:38.350Z,5.20
2022-10-28T09:14:22.082Z,4.77
2022-10-28T09:16:58.561Z,4.83
2022-10-28T09:19:40.952Z,4.07
2022-10-28T09:22:21.794Z,4.37
2022-10-28T09:24:54.570Z,4.20
2022-10-28T09:27:53.739Z,4.33
2022-10-28T09:30:33.735Z,4.37
2022-10-28T09:33:14.384Z,3.93
2022-10-28T09:35:44.293Z,4.20
2022-10-28T09:38:19.328Z,4.20
2022-10-28T09:40:54.075Z,4.83
2022-10-28T09:43:27.930Z,4.60
2022-10-28T09:46:01.321Z,5.47
2022-10-28T09:48:33.981Z,4.90
2022-10-28T09:51:02.110Z,4.70
2022-10-28T09:53:42.839Z,4.30
2022-10-28T09:56:12.007Z,4.57
2022-10-28T09:58:45.935Z,4.40
2022-10-28T10:01:14.569Z,5.10
2022-10-28T10:03:45.120Z,4.93
2022-10-28T10:06:16.516Z,4.80
2022-10-28T10:08:45.123Z,5.27
2022-10-28T10:11:22.820Z,4.60
2022-10-28T10:13:51.159Z,4.90
2022-10-28T10:16:25.221Z,4.93
2022-10-28T10:18:58.749Z,4.83
2022-10-28T10:21:42.497Z,4.47
2022-10-28T10:24:33.623Z,4.33
2022-10-28T10:27:04.924Z,4.10
2022-10-28T10:29:33.276Z,4.07
2022-10-28T10:32:16.910Z,4.43
2022-10-28T10:34:57.613Z,4.53
2022-10-28T10:37:25.559Z,4.80
2022-10-28T10:40:16.350Z,4.30
2022-10-28T10:42:57.358Z,3.70
2022-10-28T10:45:32.513Z,3.53
2022-10-28T10:48:12.696Z,4.00
2022-10-28T10:50:43.159Z,3.67
2022-10-28T10:53:21.081Z,3.17
2022-10-28T10:55:55.431Z,3.20
2022-10-28T10:58:25.710Z,3.53
2022-10-28T11:00:55.697Z,3.70
2022-10-28T11:03:28.415Z,2.70
2022-10-28T11:06:22.148Z,3.43
2022-10-28T11:08:48.146Z,3.20
2022-10-28T11:11:20.677Z,2.93
2022-10-28T11:13:50.277Z,3.40
2022-10-28T11:16:20.702Z,3.10
2022-10-28T11:18:51.689Z,3.00
2022-10-28T11:21:37.476Z,3.20
2022-10-28T11:24:21.269Z,3.20
2022-10-28T11:26:56.521Z,2.83
2022-10-28T11:29:25.569Z,2.70
2022-10-28T11:32:11.518Z,3.10
2022-10-28T11:34:56.815Z,2.77
2022-10-28T11:37:36.486Z,3.20
2022-10-28T11:40:14.407Z,3.00
2022-10-28T11:42:53.248Z,2.87
2022-10-28T11:45:28.023Z,3.07
2022-10-28T11:48:12.224Z,2.83
2022-10-28T11:50:50.207Z,2.77
2022-10-28T11:53:52.503Z,3.00
2022-10-28T11:56:32.175Z,3.03
2022-10-28T11:59:23.244Z,3.33
2022-10-28T12:01:59.975Z,2.67
2022-10-28T12:04:48.677Z,2.57
2022-10-28T12:07:35.572Z,2.87
2022-10-28T12:10:20.434Z,3.23
2022-10-28T12:12:57.734Z,3.30
2022-10-28T12:15:35.949Z,3.10
2022-10-28T12:18:10.698Z,2.60
2022-10-28T12:20:47.937Z,3.03
2022-10-28T12:23:19.787Z,2.87
2022-10-28T12:25:52.796Z,2.97
2022-10-28T12:28:23.869Z,3.43
2022-10-28T12:30:53.720Z,3.33
2022-10-28T12:33:26.602Z,2.80
2022-10-28T12:36:01.762Z,3.13
2022-10-28T12:38:35.720Z,3.20
2022-10-28T12:41:12.800Z,3.20
2022-10-28T12:43:45.201Z,2.63
2022-10-28T12:46:21.416Z,2.60
2022-10-28T12:48:56.114Z,2.70
2022-10-28T12:51:31.505Z,2.90
2022-10-28T12:54:04.392Z,2.50
2022-10-28T12:56:38.573Z,2.50
2022-10-28T12:59:12.966Z,3.27
2022-10-28T13:01:42.167Z,2.83
2022-10-28T13:04:13.478Z,2.90
2022-10-28T13:07:07.702Z,2.67
2022-10-28T13:09:46.155Z,2.50
2022-10-28T13:12:47.085Z,2.57
2022-10-28T13:15:40.688Z,2.47
2022-10-28T13:18:31.101Z,2.50
2022-10-28T13:21:12.230Z,2.10
2022-10-28T13:23:46.255Z,2.53
2022-10-28T13:26:23.496Z,2.45
2022-10-28T13:28:55.344Z,2.37
2022-10-28T13:31:23.680Z,2.67
2022-10-28T13:33:58.024Z,2.47
2022-10-28T13:36:32.563Z,2.63
2022-10-28T13:39:04.504Z,2.40
2022-10-28T13:41:42.238Z,2.73
2022-10-28T13:44:29.303Z,2.65
2022-10-28T13:47:26.223Z,2.40
2022-10-28T13:50:26.118Z,2.20
2022-10-28T13:53:39.924Z,2.47
2022-10-28T13:56:23.150Z,2.38
2022-10-28T13:58:53.581Z,2.58
2022-10-28T14:02:33.171Z,2.50
2022-10-28T14:05:00.514Z,3.10
2022-10-28T14:07:31.601Z,2.88
2022-10-28T14:10:23.512Z,3.03
2022-10-28T14:12:54.915Z,2.57
2022-10-28T14:15:27.040Z,2.83
2022-10-28T14:18:10.255Z,2.53
2022-10-28T14:20:59.023Z,2.60
2022-10-28T14:24:06.760Z,2.83
2022-10-28T14:27:22.931Z,2.50
2022-10-28T14:30:05.146Z,2.63
2022-10-28T14:32:43.660Z,2.30
2022-10-28T14:35:24.803Z,2.90
2022-10-28T14:38:18.319Z,2.20
2022-10-28T14:40:50.777Z,2.73
2022-10-28T14:43:43.225Z,2.37
2022-10-28T14:46:30.746Z,2.43
2022-10-28T14:49:00.575Z,2.20
2022-10-28T14:51:38.815Z,2.53
2022-10-28T14:54:16.096Z,2.60
2022-10-28T14:56:44.748Z,2.77
2022-10-28T14:59:32.638Z,2.97
2022-10-28T15:02:05.202Z,2.53
2022-10-28T15:04:33.492Z,3.10
2022-10-28T15:07:03.546Z,2.67
2022-10-28T15:09:34.942Z,2.83
2022-10-28T15:12:06.821Z,2.70
2022-10-28T15:14:37.509Z,2.63
2022-10-28T15:17:16.682Z,2.50
2022-10-28T15:19:45.525Z,2.27
2022-10-28T15:22:18.168Z,3.07
2022-10-28T15:24:55.454Z,2.90
2022-10-28T15:27:25.693Z,2.63
2022-10-28T15:29:54.077Z,3.17
2022-10-28T15:32:30.818Z,3.30
2022-10-28T15:34:58.959Z,3.37
2022-10-28T15:37:29.929Z,3.83
2022-10-28T15:40:14.256Z,3.87
2022-10-28T15:42:45.761Z,3.47
2022-10-28T15:45:19.634Z,4.03
2022-10-28T15:47:48.462Z,4.00
2022-10-28T15:50:33.074Z,4.33
2022-10-28T15:53:32.148Z,4.13
2022-10-28T15:56:18.449Z,4.20
2022-10-28T15:58:48.376Z,4.00
2022-10-28T16:01:31.677Z,3.90
2022-10-28T16:04:00.227Z,3.13
2022-10-28T16:06:31.602Z,3.33
2022-10-28T16:09:03.849Z,3.10
2022-10-28T16:11:32.999Z,3.23
2022-10-28T16:14:21.749Z,3.20
2022-10-28T16:16:49.999Z,2.73
2022-10-28T16:19:28.343Z,3.70
2022-10-28T16:21:56.492Z,3.63
2022-10-28T16:24:25.809Z,3.87
2022-10-28T16:26:53.793Z,3.90
2022-10-28T16:29:21.554Z,3.67
2022-10-28T16:31:52.896Z,4.37
2022-10-28T16:34:20.711Z,4.10
2022-10-28T16:36:48.675Z,4.03
2022-10-28T16:39:16.597Z,4.30
2022-10-28T16:41:45.792Z,4.30
2022-10-28T16:44:19.168Z,3.77
2022-10-28T16:46:46.969Z,3.50
2022-10-28T16:49:14.935Z,3.90
2022-10-28T16:51:42.714Z,4.33
2022-10-28T16:54:11.374Z,3.60
2022-10-28T16:56:39.163Z,3.37
2022-10-28T16:59:08.510Z,4.23
2022-10-28T17:01:36.521Z,2.90
2022-10-28T17:04:04.624Z,3.50
2022-10-28T17:06:32.483Z,3.60
2022-10-28T17:09:03.289Z,4.30
2022-10-28T17:14:00.016Z,4.87
2022-10-28T17:16:29.217Z,5.47
2022-10-28T17:18:57.323Z,4.50
2022-10-28T17:21:28.694Z,3.30
2022-10-28T17:23:56.432Z,3.87
2022-10-28T17:26:24.308Z,3.50
2022-10-28T17:28:52.961Z,2.83
2022-10-28T17:31:24.783Z,4.70
2022-10-28T17:33:57.901Z,3.23
2022-10-28T17:36:25.815Z,3.43
2022-10-28T17:38:53.759Z,3.83
2022-10-28T17:41:21.688Z,3.43
2022-10-28T17:43:52.907Z,3.60
2022-10-28T17:46:21.176Z,3.57
2022-10-28T17:48:49.490Z,4.13
2022-10-28T17:51:20.841Z,4.40
2022-10-28T17:53:53.674Z,5.20
2022-10-28T17:56:21.591Z,3.80
2022-10-28T17:58:49.813Z,4.50
2022-10-28T18:01:18.090Z,4.27
2022-10-28T18:03:46.083Z,4.07
2022-10-28T18:06:14.181Z,3.83
2022-10-28T18:08:44.739Z,3.90
2022-10-28T18:11:20.921Z,3.83
2022-10-28T18:13:52.842Z,4.83
2022-10-28T18:16:24.195Z,4.13
2022-10-28T18:18:53.864Z,4.17
2022-10-28T18:21:22.938Z,3.70
2022-10-28T18:23:54.436Z,4.47
2022-10-28T18:26:24.440Z,4.30
2022-10-28T18:28:52.289Z,4.03
2022-10-28T18:31:21.369Z,4.37
2022-10-28T18:33:49.280Z,4.00
2022-10-28T18:36:19.322Z,4.70
2022-10-28T18:38:50.139Z,3.73
2022-10-28T18:41:20.732Z,4.70
2022-10-28T18:43:48.882Z,4.70
2022-10-28T18:46:17.407Z,4.83
2022-10-28T18:48:45.266Z,4.30
2022-10-28T18:51:13.984Z,4.70
2022-10-28T18:53:43.753Z,5.07
2022-10-28T18:56:13.692Z,5.00
2022-10-28T18:58:43.294Z,4.40
2022-10-28T19:01:13.521Z,5.03
2022-10-28T19:03:42.392Z,4.50
2022-10-28T19:06:11.788Z,4.50
2022-10-28T19:08:40.930Z,4.30
2022-10-28T19:11:11.267Z,4.37
2022-10-28T19:13:40.866Z,4.80
2022-10-28T19:18:40.549Z,4.53
2022-10-28T19:21:11.372Z,5.10
2022-10-28T19:23:39.646Z,5.40
2022-10-28T19:26:08.292Z,5.10
2022-10-28T19:28:40.138Z,5.37
2022-10-28T19:31:11.832Z,3.90
2022-10-28T19:33:39.964Z,4.60
2022-10-28T19:36:11.248Z,4.80
2022-10-28T19:38:39.697Z,4.97
2022-10-28T19:41:10.084Z,4.50
2022-10-28T19:43:38.271Z,5.30
2022-10-28T19:46:08.512Z,4.33
2022-10-28T19:48:38.181Z,4.50
2022-10-28T19:51:06.111Z,4.43
2022-10-28T19:53:34.120Z,4.60
2022-10-28T19:56:04.288Z,4.40
2022-10-28T19:58:33.311Z,4.40
2022-10-28T20:01:03.460Z,4.47
2022-10-28T20:03:34.538Z,6.20
2022-10-28T20:06:07.836Z,6.10
2022-10-28T20:08:36.580Z,4.90
2022-10-28T20:11:07.000Z,4.90
2022-10-28T20:13:35.784Z,4.60
2022-10-28T20:16:05.715Z,4.73
2022-10-28T20:18:34.550Z,4.60
2022-10-28T20:21:10.752Z,5.07
2022-10-28T20:23:39.045Z,4.73
2022-10-28T20:26:08.404Z,5.17
2022-10-28T20:28:36.871Z,5.07
2022-10-28T20:31:10.935Z,5.90
2022-10-28T20:33:41.329Z,5.80
2022-10-28T20:36:23.363Z,6.10
2022-10-28T20:38:54.349Z,5.00
2022-10-28T20:41:25.713Z,5.53
2022-10-28T20:43:54.809Z,5.43
2022-10-28T20:46:23.313Z,5.30
2022-10-28T20:48:54.114Z,5.47
2022-10-28T20:51:25.225Z,5.90
2022-10-28T20:53:53.224Z,5.97
2022-10-28T20:56:23.749Z,5.90
2022-10-28T20:58:52.081Z,6.27
2022-10-28T21:01:21.802Z,6.40
2022-10-28T21:03:50.761Z,6.50
2022-10-28T21:06:18.964Z,7.17
2022-10-28T21:08:48.503Z,6.73
2022-10-28T21:11:17.949Z,7.07
2022-10-28T21:13:51.817Z,6.30
2022-10-28T21:16:19.806Z,6.57
2022-10-28T21:18:47.880Z,7.10
2022-10-28T21:21:16.448Z,7.13
2022-10-28T21:23:44.673Z,7.23
2022-10-28T21:26:14.311Z,8.73
2022-10-28T21:28:42.397Z,8.10
2022-10-28T21:31:12.502Z,8.67
2022-10-28T21:33:41.060Z,7.30
2022-10-28T21:36:12.308Z,7.43
2022-10-28T21:38:40.364Z,7.10
2022-10-28T21:41:10.979Z,7.40
2022-10-28T21:43:43.060Z,7.37
2022-10-28T21:46:11.433Z,6.83
2022-10-28T21:48:39.389Z,7.37
2022-10-28T21:51:11.831Z,6.80
2022-10-28T21:53:45.927Z,6.93
2022-10-28T21:56:18.307Z,7.20
2022-10-28T21:58:49.890Z,7.90
2022-10-28T22:01:20.689Z,8.03
2022-10-28T22:03:49.071Z,7.10
2022-10-28T22:06:17.066Z,7.87
2022-10-28T22:08:46.805Z,7.97
2022-10-28T22:11:16.484Z,8.30
2022-10-28T22:13:44.701Z,7.43
2022-10-28T22:16:15.345Z,7.77
2022-10-28T22:18:43.856Z,8.17
2022-10-28T22:21:13.940Z,8.17
2022-10-28T22:23:41.828Z,8.00
2022-10-28T22:26:11.662Z,8.00
2022-10-28T22:28:39.853Z,8.07
2022-10-28T22:31:09.457Z,7.83
2022-10-28T22:33:39.375Z,9.70
2022-10-28T22:36:09.749Z,8.47
2022-10-28T22:38:37.666Z,8.30
2022-10-28T22:41:07.615Z,8.43
2022-10-28T22:43:36.070Z,9.20
2022-10-28T22:46:04.390Z,8.87
2022-10-28T22:48:33.482Z,8.67
2022-10-28T22:51:03.519Z,8.93
2022-10-28T22:53:31.594Z,9.10
2022-10-28T22:56:01.033Z,8.13
2022-10-28T22:58:29.231Z,8.40
2022-10-28T23:01:06.005Z,7.90
2022-10-28T23:03:36.545Z,8.00
2022-10-28T23:06:06.369Z,7.63
2022-10-28T23:08:34.586Z,7.50
2022-10-28T23:11:02.387Z,8.07
2022-10-28T23:13:30.485Z,8.07
2022-10-28T23:16:03.049Z,7.53
2022-10-28T23:18:30.994Z,8.03
2022-10-28T23:21:06.284Z,8.67
2022-10-28T23:23:34.197Z,8.63
2022-10-28T23:26:02.065Z,8.40
2022-10-28T23:28:29.935Z,8.50
2022-10-28T23:31:00.862Z,7.80
2022-10-28T23:33:30.151Z,8.67
2022-10-28T23:35:58.561Z,8.23
2022-10-28T23:38:28.203Z,8.40
2022-10-28T23:41:00.698Z,7.77
2022-10-28T23:43:29.007Z,7.80
2022-10-28T23:45:57.340Z,9.07
2022-10-28T23:48:26.290Z,8.37
2022-10-28T23:50:54.396Z,8.03
2022-10-28T23:53:22.911Z,8.47
2022-10-28T23:55:52.944Z,8.50
2022-10-28T23:58:22.432Z,7.87
